Latest Weather Observations for Temora

IDN60801

Issued at 5:35 pm EST Wednesday 3 September 2014 (issued every 30 minutes, with the page automatically refreshed every 10 minutes)

About weather observations | Map of weather stations | Latest weather observations for NSW | Other Formats
Station Details ID: 073151 Name: TEMORA AIRPORT Lat: -34.43 Lon: 147.51 Height: 280.5 m
Data from the previous 72 hours. | See also: Recent months at Temora
Date/Time
EST
Temp
°C
App
Temp
°C
Dew
Point
Rel
Hum
%
Delta-T
°C
Wind Press
QNH
hPa
Press
MSL
hPa
Rain
since 9 am
mm
Dir
 
Spd
km/h
Gust
km/h
Spd
kts
Gust
kts
03/05:30pm 11.4 7.1 3.2 57 3.6 SSW 15 20 8 11 1017.8 - 0.0
03/05:00pm 12.4 8.1 3.4 54 4.1 SSW 15 22 8 12 1017.4 - 0.0
03/04:30pm 12.9 7.7 2.5 49 4.6 SSW 19 26 10 14 1017.3 - 0.0
03/04:00pm 13.2 8.5 3.0 50 4.6 SW 17 24 9 13 1017.4 - 0.0
03/03:30pm 13.2 7.5 2.7 49 4.7 SSW 22 33 12 18 1017.2 - 0.0
03/03:00pm 13.1 7.8 3.2 51 4.5 S 20 30 11 16 1017.2 1017.3 0.0
03/02:30pm 13.2 8.0 3.3 51 4.5 SSW 20 30 11 16 1017.4 - 0.0
03/02:00pm 12.6 7.4 3.5 54 4.1 SW 20 30 11 16 1017.5 - 0.0
03/01:30pm 13.1 8.2 5.0 58 3.8 SW 20 28 11 15 1017.6 - 0.0
03/01:00pm 12.2 7.3 3.9 57 3.8 SW 19 30 10 16 1017.9 - 0.0
03/12:30pm 11.7 6.5 3.7 58 3.6 SW 20 26 11 14 1018.1 - 0.0
03/12:00pm 11.5 5.8 4.7 63 3.1 SSW 24 35 13 19 1018.8 1018.9 0.0
03/11:30am 11.1 5.7 4.3 63 3.1 SSW 22 35 12 19 1019.3 - 0.0
03/11:00am 10.7 4.9 2.5 57 3.6 SSW 22 33 12 18 1019.6 - 0.0
03/10:30am 10.2 4.5 3.0 61 3.2 SSW 22 32 12 17 1019.9 - 0.0
03/10:00am 9.7 4.4 2.8 62 3.0 SW 20 28 11 15 1020.3 - 0.0
03/09:30am 8.8 3.5 3.2 68 2.4 SSW 20 32 11 17 1020.3 - 0.0
03/09:00am 7.6 2.5 2.9 72 2.0 SSW 19 28 10 15 1020.3 1020.4 1.6
03/08:30am 6.3 2.1 3.6 83 1.2 SW 15 24 8 13 1020.4 - 1.6
03/08:00am 4.4 0.2 1.9 84 1.0 SSW 13 17 7 9 1020.2 - 1.6
03/07:30am 2.7 -1.6 0.9 88 0.7 SSW 13 17 7 9 1020.3 - 1.6
03/07:00am 2.0 -2.4 0.5 90 0.6 SSW 13 17 7 9 1020.0 - 1.6
03/06:30am 1.7 -2.7 0.5 92 0.5 S 13 17 7 9 1019.9 - 1.6
03/06:00am 1.5 -3.0 0.0 90 0.6 SSW 13 17 7 9 1019.7 1019.8 1.6
03/05:30am 1.3 -2.7 0.3 93 0.4 SSW 11 15 6 8 1019.6 - 1.6
03/05:00am 2.4 -2.6 1.1 91 0.5 SSW 17 22 9 12 1019.2 - 1.6
03/04:30am 2.8 -2.6 1.3 90 0.6 SSW 19 22 10 12 1018.9 - 1.6
03/04:00am 2.8 -1.4 1.6 92 0.5 SSW 13 20 7 11 1018.5 - 1.6
03/03:30am 2.6 -2.0 1.4 92 0.5 SSW 15 19 8 10 1018.2 - 1.6
03/03:00am 1.8 -1.7 1.1 95 0.3 SSW 9 11 5 6 1018.4 1018.6 1.6
03/02:30am 2.2 -1.3 1.2 93 0.4 SSW 9 13 5 7 1018.6 - 1.6
03/02:00am 3.4 -0.3 2.1 91 0.5 SSW 11 15 6 8 1018.6 - 1.6
03/01:30am 3.7 -0.4 2.4 91 0.5 SSW 13 17 7 9 1018.8 - 1.6
03/01:00am 3.8 0.2 2.8 93 0.4 SSW 11 15 6 8 1019.1 - 1.6
03/12:30am 4.0 -0.1 2.5 90 0.6 SSW 13 19 7 10 1018.9 - 1.6
03/12:00am 3.9 0.2 2.1 88 0.7 SW 11 17 6 9 1018.6 1018.8 1.6
 
Date/Time
EST
Temp
°C
App
Temp
°C
Dew
Point
Rel
Hum
%
Delta-T
°C
Wind Press
QNH
hPa
Press
MSL
hPa
Rain
since 9 am
mm
Dir
 
Spd
km/h
Gust
km/h
Spd
kts
Gust
kts
02/11:30pm 5.0 0.6 2.9 86 0.9 SSW 15 20 8 11 1018.8 - 1.6
02/11:00pm 5.8 0.7 3.3 84 1.1 SSW 19 26 10 14 1018.5 - 1.6
02/10:30pm 6.4 1.4 3.6 82 1.2 SSW 19 28 10 15 1018.8 - 1.6
02/10:00pm 6.1 2.2 3.4 83 1.2 SSW 13 20 7 11 1018.5 - 1.6
02/09:30pm 6.1 2.2 3.4 83 1.2 SSW 13 17 7 9 1018.4 - 1.6
02/09:00pm 5.3 2.5 3.3 87 0.8 SW 7 11 4 6 1018.3 1018.5 1.6
02/08:30pm 5.9 3.4 3.9 87 0.9 SSW 6 15 3 8 1018.1 - 1.6
02/08:00pm 6.0 2.6 4.2 88 0.8 WSW 11 17 6 9 1017.8 - 1.6
02/07:30pm 5.5 2.5 4.2 91 0.6 WSW 9 11 5 6 1017.4 - 1.6
02/07:00pm 6.2 3.6 4.2 87 0.9 SSW 7 11 4 6 1017.0 - 1.6
02/06:30pm 7.7 3.7 5.0 83 1.2 SW 15 28 8 15 1016.9 - 1.6
02/06:00pm 7.7 0.6 5.5 86 1.0 S 32 52 17 28 1016.6 1016.7 1.4
02/05:31pm 11.5 3.8 3.5 58 3.6 SSW 33 52 18 28 1015.7 - 0.0
02/05:30pm 11.7 4.2 3.7 58 3.6 SSW 32 44 17 24 1015.6 - 0.0
02/05:20pm 12.4 5.7 3.9 56 3.9 WSW 28 46 15 25 1015.1 - 0.0
02/05:00pm 12.3 6.5 4.5 59 3.6 SW 24 32 13 17 1014.5 - 0.0
02/04:39pm 13.0 6.1 4.7 57 3.9 SW 30 48 16 26 1014.3 - 0.0
02/04:30pm 13.0 5.4 3.9 54 4.2 SW 33 48 18 26 1014.1 - 0.0
02/04:08pm 13.4 6.9 4.8 56 4.0 WSW 28 46 15 25 1013.9 - 0.0
02/04:00pm 13.5 6.5 4.1 53 4.3 WSW 30 43 16 23 1013.9 - 0.0
02/03:37pm 13.1 6.6 4.8 57 3.9 SSW 28 46 15 25 1013.8 - 0.0
02/03:30pm 13.9 7.1 5.3 56 4.1 SSW 30 43 16 23 1013.7 - 0.0
02/03:01pm 14.4 7.9 4.7 52 4.6 SW 28 48 15 26 1013.6 - 0.0
02/03:00pm 14.4 8.1 5.5 55 4.3 SW 28 41 15 22 1013.6 1013.7 0.0
02/02:30pm 13.9 7.7 6.0 59 3.8 SW 28 43 15 23 1013.5 - 0.0
02/02:00pm 14.1 9.0 6.0 58 3.9 SW 22 35 12 19 1013.5 - 0.0
02/01:30pm 13.0 6.6 5.2 59 3.7 SW 28 41 15 22 1013.5 - 0.0
02/01:00pm 12.9 8.3 6.7 66 3.0 SW 20 33 11 18 1013.7 - 0.0
02/12:30pm 12.6 6.9 6.6 67 2.9 SW 26 35 14 19 1014.1 - 0.0
02/12:00pm 12.6 7.0 7.1 69 2.7 WSW 26 35 14 19 1014.0 1014.1 0.0
02/11:30am 12.6 7.6 8.1 74 2.3 SW 24 33 13 18 1014.4 - 0.0
02/11:00am 11.0 5.5 7.5 79 1.7 SSW 26 35 14 19 1014.7 - 0.0
02/10:30am 11.3 6.8 8.5 83 1.4 SW 22 33 12 18 1014.5 - 0.0
02/10:00am 10.3 5.6 7.7 84 1.3 SW 22 35 12 19 1014.5 - 0.0
02/09:30am 9.4 3.8 7.2 86 1.1 SW 26 39 14 21 1014.5 - 0.0
02/09:00am 8.3 3.3 6.3 87 0.9 SW 22 35 12 19 1014.6 1014.8 1.4
02/08:30am 7.9 3.3 6.7 92 0.6 SSW 20 32 11 17 1014.5 - 1.4
02/08:00am 7.4 2.3 6.0 91 0.6 SW 22 33 12 18 1014.4 - 1.4
02/07:30am 7.7 3.6 6.3 91 0.6 SW 17 28 9 15 1013.9 - 1.4
02/07:00am 7.6 2.9 6.1 90 0.7 SW 20 30 11 16 1013.5 - 1.4
02/06:30am 8.0 4.0 6.6 91 0.7 WSW 17 33 9 18 1013.2 - 1.4
02/06:00am 8.1 3.7 7.2 94 0.4 WSW 20 28 11 15 1012.8 1012.9 1.4
02/05:30am 8.5 4.2 7.7 95 0.4 WSW 20 30 11 16 1012.6 - 1.4
02/05:00am 8.9 5.2 8.0 94 0.4 WSW 17 24 9 13 1012.5 - 1.4
02/04:30am 9.0 6.1 8.2 95 0.4 W 13 19 7 10 1012.2 - 1.4
02/04:00am 9.1 5.5 8.2 94 0.4 W 17 20 9 11 1012.2 - 1.2
02/03:30am 8.8 6.3 8.0 95 0.4 WSW 11 15 6 8 1012.0 - 1.2
02/03:00am 8.7 5.7 7.8 94 0.4 W 13 20 7 11 1012.2 1012.3 1.2
02/02:30am 8.9 6.8 8.3 96 0.3 W 9 15 5 8 1012.3 - 1.2
02/02:00am 8.7 6.9 8.1 96 0.3 W 7 9 4 5 1012.0 - 1.2
02/01:30am 8.9 6.8 8.3 96 0.3 SW 9 13 5 7 1012.7 - 1.2
02/01:00am 8.9 7.1 8.1 95 0.4 W 7 11 4 6 1013.1 - 1.2
02/12:30am 9.0 7.4 8.1 94 0.4 NW 6 9 3 5 1013.1 - 0.6
02/12:00am 9.3 6.7 7.9 91 0.7 WSW 11 17 6 9 1013.5 1013.6 0.0
 
Date/Time
EST
Temp
°C
App
Temp
°C
Dew
Point
Rel
Hum
%
Delta-T
°C
Wind Press
QNH
hPa
Press
MSL
hPa
Rain
since 9 am
mm
Dir
 
Spd
km/h
Gust
km/h
Spd
kts
Gust
kts
01/11:30pm 9.9 6.1 7.5 85 1.2 WSW 17 24 9 13 1013.4 - 0.0
01/11:00pm 10.4 7.4 7.5 82 1.4 WSW 13 20 7 11 1013.1 - 0.0
01/10:30pm 10.7 8.4 7.6 81 1.5 SW 9 15 5 8 1013.3 - 0.0
01/10:00pm 10.9 8.3 7.8 81 1.5 SW 11 15 6 8 1013.4 - 0.0
01/09:30pm 11.1 8.2 8.0 81 1.5 SSW 13 20 7 11 1013.1 - 0.0
01/09:00pm 11.8 7.8 8.1 78 1.8 SW 19 28 10 15 1013.0 1013.1 0.0
01/08:30pm 12.3 6.7 7.2 71 2.5 SW 26 41 14 22 1012.4 - 0.0
01/08:00pm 13.3 8.5 5.7 60 3.6 WSW 20 26 11 14 1011.9 - 0.0
01/07:30pm 14.0 9.0 4.6 53 4.4 SW 20 33 11 18 1011.6 - 0.0
01/07:00pm 15.0 9.8 3.8 47 5.2 WSW 20 30 11 16 1010.8 - 0.0
01/06:30pm 14.4 11.6 7.0 61 3.7 N 11 13 6 7 1010.0 - 0.0
01/06:00pm 15.4 12.6 6.9 57 4.2 N 11 13 6 7 1010.1 1010.2 0.0
01/05:30pm 15.8 13.0 7.0 56 4.4 N 11 13 6 7 1010.3 - 0.0
01/05:00pm 17.0 13.3 6.5 50 5.2 NNW 15 19 8 10 1010.5 - 0.0
01/04:30pm 18.4 14.7 6.3 45 6.1 NNW 15 20 8 11 1010.5 - 0.0
01/04:00pm 18.6 15.2 7.7 49 5.6 N 15 19 8 10 1010.6 - 0.0
01/03:30pm 19.7 15.6 6.1 41 6.9 NNW 17 22 9 12 1010.6 - 0.0
01/03:00pm 20.2 15.1 6.2 40 7.1 N 22 28 12 15 1010.9 1011.0 0.0
01/02:30pm 20.3 15.0 7.0 42 6.9 N 24 32 13 17 1011.4 - 0.0
01/02:00pm 19.6 13.9 6.7 43 6.6 N 26 35 14 19 1011.9 - 0.0
01/01:30pm 19.9 15.5 7.6 45 6.4 N 20 32 11 17 1012.5 - 0.0
01/01:00pm 20.0 15.4 8.0 46 6.3 N 22 30 12 16 1013.0 - 0.0
01/12:30pm 18.2 14.3 8.5 53 5.1 NNW 19 24 10 13 1013.5 - 0.0
01/12:00pm 18.5 14.6 9.3 55 4.9 N 20 28 11 15 1014.1 1014.2 0.0
01/11:30am 18.0 14.0 10.6 62 4.0 N 22 28 12 15 1014.7 - 0.0
01/11:00am 17.3 13.3 9.2 59 4.3 N 20 28 11 15 1015.4 - 0.0
01/10:30am 16.0 12.5 8.7 62 3.8 N 17 22 9 12 1015.7 - 0.0
01/10:00am 14.3 11.2 8.9 70 2.8 N 15 19 8 10 1016.0 - 0.0
01/09:30am 12.2 8.0 7.3 72 2.4 NNE 19 22 10 12 1016.1 - 0.0
01/09:00am 12.0 7.8 7.5 74 2.2 N 19 22 10 12 1016.5 1016.6 0.0
01/08:30am 10.0 7.2 7.1 82 1.4 NNE 11 15 6 8 1016.5 - 0.0
01/08:00am 8.1 5.7 7.0 93 0.5 ENE 9 11 5 6 1016.6 - 0.0
01/07:30am 4.5 2.5 4.4 99 0.0 E 4 7 2 4 1016.7 - 0.0
01/07:00am 1.5 -0.3 1.1 97 0.2 CALM 0 0 0 0 1016.7 - 0.0
01/06:30am 1.5 -0.3 1.1 97 0.2 CALM 0 0 0 0 1016.5 - 0.0
01/06:00am 1.2 -0.7 0.8 97 0.2 CALM 0 0 0 0 1016.4 1016.5 0.0
01/05:30am 1.0 -0.9 0.4 96 0.2 CALM 0 0 0 0 1016.5 - 0.0
01/05:00am 1.9 0.1 1.5 97 0.2 CALM 0 0 0 0 1016.4 - 0.0
01/04:30am 1.4 -0.4 1.0 97 0.2 CALM 0 0 0 0 1016.3 - 0.0
01/04:00am 1.3 -1.4 0.6 95 0.3 ESE 4 7 2 4 1016.2 - 0.0
01/03:30am 2.2 0.1 1.6 96 0.2 S 2 6 1 3 1016.1 - 0.0
01/03:00am 1.6 -0.2 0.9 95 0.3 CALM 0 0 0 0 1016.3 1016.4 0.0
01/02:30am 2.7 1.0 2.0 95 0.3 CALM 0 0 0 0 1016.4 - 0.0
01/02:00am 3.2 1.6 2.6 96 0.2 CALM 0 0 0 0 1016.6 - 0.0
01/01:30am 3.6 2.1 3.0 96 0.2 CALM 0 0 0 0 1016.8 - 0.0
01/01:00am 2.4 0.3 1.4 93 0.4 N 2 7 1 4 1017.0 - 0.0
01/12:30am 4.0 1.2 3.0 93 0.4 ENE 7 9 4 5 1016.9 - 0.0
01/12:00am 4.1 2.7 3.4 95 0.3 CALM 0 0 0 0 1017.2 1017.3 0.0
 
Date/Time
EST
Temp
°C
App
Temp
°C
Dew
Point
Rel
Hum
%
Delta-T
°C
Wind Press
QNH
hPa
Press
MSL
hPa
Rain
since 9 am
mm
Dir
 
Spd
km/h
Gust
km/h
Spd
kts
Gust
kts
31/11:30pm 3.2 1.6 2.2 93 0.4 CALM 0 0 0 0 1017.3 - 0.0
31/11:00pm 4.0 2.1 3.1 94 0.4 SE 2 6 1 3 1017.4 - 0.0
31/10:30pm 4.1 1.9 3.2 94 0.4 S 4 6 2 3 1017.9 - 0.0
31/10:00pm 4.1 1.5 3.1 93 0.4 S 6 7 3 4 1018.1 - 0.0
31/09:30pm 3.8 1.1 2.6 92 0.5 S 6 7 3 4 1018.3 - 0.0
31/09:00pm 4.8 2.0 3.3 90 0.6 S 7 9 4 5 1018.5 1019.0 0.0
31/08:30pm 6.3 3.8 4.5 88 0.8 S 7 9 4 5 1018.5 - 0.0
31/08:00pm 7.4 6.3 5.0 85 1.1 CALM 0 0 0 0 1018.6 - 0.0
31/07:30pm 8.6 7.6 5.7 82 1.3 CALM 0 0 0 0 1018.4 - 0.0
31/07:00pm 10.4 8.6 5.2 70 2.4 ENE 4 9 2 5 1018.2 - 0.0
31/06:30pm 12.3 10.1 5.5 63 3.2 ENE 6 9 3 5 1017.9 - 0.0
31/06:00pm 15.7 13.6 5.9 52 4.8 ENE 6 9 3 5 1017.8 1018.3 0.0

Other Formats:

Comma delimited format used in spreadsheet applications
http://www.bom.gov.au/fwo/IDN60801/IDN60801.95722.axf

JavaScript Object Notation format (JSON) in row-major order
http://www.bom.gov.au/fwo/IDN60801/IDN60801.95722.json